createdAt,value
2023-01-02T19:10:36.179Z,-2.89
2023-01-02T19:13:08.431Z,-3.03
2023-01-02T19:15:44.328Z,-3.04
2023-01-02T19:18:33.439Z,-3.04
2023-01-02T19:21:19.028Z,-3.04
2023-01-02T19:23:57.359Z,-3.09
2023-01-02T19:26:35.749Z,-3.08
2023-01-02T19:29:15.342Z,-3.10
2023-01-02T19:31:52.060Z,-3.12
2023-01-02T19:34:31.957Z,-3.14
2023-01-02T19:37:23.041Z,-3.19
2023-01-02T19:39:58.175Z,-3.14
2023-01-02T19:42:33.316Z,-3.36
2023-01-02T19:45:08.912Z,-3.17
2023-01-02T19:47:42.457Z,-3.17
2023-01-02T19:50:17.639Z,-3.18
2023-01-02T19:52:51.191Z,-3.19
2023-01-02T19:55:32.575Z,-3.20
2023-01-02T19:58:07.410Z,-3.20
2023-01-02T20:00:40.775Z,-3.21
2023-01-02T20:03:13.954Z,-3.23
2023-01-02T20:05:48.672Z,-3.22
2023-01-02T20:08:21.639Z,-3.22
2023-01-02T20:10:54.758Z,-3.22
2023-01-02T20:13:29.442Z,-3.24
2023-01-02T20:16:02.682Z,-3.24
2023-01-02T20:18:35.896Z,-3.24
2023-01-02T20:21:09.770Z,-3.25
2023-01-02T20:23:43.042Z,-3.27
2023-01-02T20:26:16.518Z,-3.27
2023-01-02T20:28:49.641Z,-3.25
2023-01-02T20:31:23.272Z,-3.26
2023-01-02T20:33:56.419Z,-3.24
2023-01-02T20:36:29.636Z,-3.25
2023-01-02T20:39:02.921Z,-3.22
2023-01-02T20:41:38.752Z,-3.21
2023-01-02T20:44:13.837Z,-3.17
2023-01-02T20:46:47.008Z,-3.17
2023-01-02T20:49:20.175Z,-3.17
2023-01-02T20:51:55.518Z,-3.14
2023-01-02T20:54:29.925Z,-3.11
2023-01-02T20:57:02.960Z,-3.07
2023-01-02T20:59:36.196Z,-3.08
2023-01-02T21:04:52.536Z,-2.90
2023-01-02T21:07:26.685Z,-3.01
2023-01-02T21:10:01.152Z,-2.99
2023-01-02T21:12:52.148Z,-2.99
2023-01-02T21:15:44.015Z,-2.99
2023-01-02T21:18:19.566Z,-3.02
2023-01-02T21:20:54.223Z,-3.05
2023-01-02T21:23:29.923Z,-3.05
2023-01-02T21:26:04.574Z,-3.04
2023-01-02T21:28:38.363Z,-3.02
2023-01-02T21:31:12.026Z,-3.01
2023-01-02T21:33:45.509Z,-3.01
2023-01-02T21:36:18.622Z,-2.97
2023-01-02T21:38:51.720Z,-2.99
2023-01-02T21:41:42.325Z,-2.96
2023-01-02T21:44:15.366Z,-2.96
2023-01-02T21:46:48.587Z,-2.97
2023-01-02T21:49:22.019Z,-2.97
2023-01-02T21:51:55.478Z,-2.94
2023-01-02T21:54:31.156Z,-2.91
2023-01-02T21:57:04.339Z,-2.90
2023-01-02T21:59:37.974Z,-2.85
2023-01-02T22:02:11.170Z,-2.87
2023-01-02T22:04:44.471Z,-2.85
2023-01-02T22:07:31.560Z,-2.84
2023-01-02T22:09:54.311Z,-2.80
2023-01-02T22:12:29.796Z,-2.83
2023-01-02T22:15:02.932Z,-2.80
2023-01-02T22:17:36.577Z,-2.78
2023-01-02T22:20:15.228Z,-2.76
2023-01-02T22:22:48.895Z,-2.75
2023-01-02T22:25:23.374Z,-2.74
2023-01-02T22:27:56.681Z,-2.74
2023-01-02T22:30:34.565Z,-2.71
2023-01-02T22:33:05.789Z,-2.72
2023-01-02T22:35:38.972Z,-2.71
2023-01-02T22:38:12.119Z,-2.71
2023-01-02T22:40:45.202Z,-2.68
2023-01-02T22:43:24.463Z,-2.67
2023-01-02T22:45:55.568Z,-2.64
2023-01-02T22:48:31.578Z,-2.62
2023-01-02T22:51:06.849Z,-2.61
2023-01-02T22:53:41.058Z,-2.58
2023-01-02T22:56:16.714Z,-2.55
2023-01-02T22:58:50.991Z,-2.57
2023-01-02T23:01:27.876Z,-2.56
2023-01-02T23:04:01.662Z,-2.56
2023-01-02T23:06:38.057Z,-2.55
2023-01-02T23:09:09.246Z,-2.55
2023-01-02T23:11:42.217Z,-2.54
2023-01-02T23:14:16.417Z,-2.52
2023-01-02T23:17:07.026Z,-2.51
2023-01-02T23:19:40.204Z,-2.46
2023-01-02T23:22:13.333Z,-2.51
2023-01-02T23:24:46.583Z,-2.53
2023-01-02T23:27:20.189Z,-2.52
2023-01-02T23:29:52.990Z,-2.51
2023-01-02T23:32:26.469Z,-2.58
2023-01-02T23:34:59.716Z,-2.51
2023-01-02T23:37:34.023Z,-2.50
2023-01-02T23:40:09.214Z,-2.50
2023-01-02T23:42:43.023Z,-2.49
2023-01-02T23:45:16.740Z,-2.49
2023-01-02T23:47:50.026Z,-2.50
2023-01-02T23:50:23.105Z,-2.49
2023-01-02T23:52:56.099Z,-2.48
2023-01-02T23:55:30.336Z,-2.47
2023-01-02T23:58:03.500Z,-2.44
